Mary Alice — WCX9570 — position and weather

sailwx.info

Track history (hours):
 
Tides and Currents Weather Stations Pressure Air Temp Water Temp Dewpoint Dewpoint Depression Visibility Wind Speed Wind Dir Waves Ship Positions

Mary Alice

Owner: Donjon Marine Co., Inc., HILLSIDE, NJ. More information available from US FCC via Universal Licensing System and Coast Guard Vessel Documentation Center.

Last reported at 2017-Apr-25 06:44 UTC. Time now 2017-Apr-25 10:25 UTC.
Position N 40°29' W 073°54'.

Length 21 m; draft 4.8 m.

Type: Towing. MMSI: 366744020.

Date/timePositionNaut miles runAvg speedWind from/ knotsBaromVisibWave heightAir tempDewpointWater temp
2017-Apr-25 06:44N 40°29' W 073°54'2 6.3
2017-Apr-25 06:29N 40°30' W 073°56'3 7.1
2017-Apr-25 06:00N 40°31' W 074°00'4 8.6
2017-Apr-25 05:30N 40°35' W 074°02'4 8.5
2017-Apr-25 05:00N 40°39' W 074°03'4 8.8
2017-Apr-25 04:30N 40°43' W 074°01'3 5.7
2017-Apr-25 04:00N 40°46' W 074°00'0 0.6
2017-Apr-25 03:30N 40°46' W 073°60'0 0.4
2017-Apr-25 03:00N 40°46' W 074°00'0 0.0
2017-Apr-25 02:30N 40°46' W 073°60'0 0.0
2017-Apr-25 02:00N 40°46' W 073°60'0 0.0
2017-Apr-25 01:30N 40°46' W 073°60'0 0.0
2017-Apr-25 01:00N 40°46' W 073°60'0 0.0
2017-Apr-25 00:30N 40°46' W 073°60'0 0.0
2017-Apr-25 00:00N 40°46' W 073°60'0 0.0
2017-Apr-24 23:30N 40°46' W 073°60'0 0.0
2017-Apr-24 23:00N 40°46' W 073°60'0 0.0
2017-Apr-24 22:30N 40°46' W 073°60'0 0.6
2017-Apr-24 22:00N 40°46' W 074°00'4 8.2
2017-Apr-24 21:30N 40°42' W 074°02'4 8.1
2017-Apr-24 21:00N 40°38' W 074°03'4 8.7
2017-Apr-24 20:30N 40°34' W 074°02'8 9.1
2017-Apr-24 19:40N 40°29' W 073°55'7 6.8
2017-Apr-24 18:40N 40°23' W 073°50'1 7.5
2017-Apr-24 18:30N 40°24' W 073°50'4 8.0
2017-Apr-24 17:59N 40°28' W 073°53'4 8.8
2017-Apr-24 17:29N 40°30' W 073°57'4 8.8
2017-Apr-24 17:00N 40°33' W 074°02'5 9.2
2017-Apr-24 16:30N 40°38' W 074°03'5 9.2
2017-Apr-24 16:00N 40°42' W 074°02'4 8.2
2017-Apr-24 15:30N 40°46' W 074°00'0 0.8
2017-Apr-24 15:00N 40°46' W 073°60'1 1.6
2017-Apr-24 14:30N 40°46' W 074°01'7 6.8
2017-Apr-24 13:30N 40°39' W 074°03'4 7.9
2017-Apr-24 13:00N 40°35' W 074°02'4 7.8
2017-Apr-24 12:30N 40°31' W 074°00'8 8.3
2017-Apr-24 11:31N 40°25' W 073°53'3 7.8
2017-Apr-24 11:05N 40°23' W 073°50'1 8.0
2017-Apr-24 10:57N 40°24' W 073°50'4 7.4
2017-Apr-24 10:28N 40°27' W 073°52'4 7.1
2017-Apr-24 09:54N 40°30' W 073°56'3 6.5
2017-Apr-24 09:30N 40°31' W 073°59'3 6.1
2017-Apr-24 09:00N 40°33' W 074°02'3 6.9
2017-Apr-24 08:30N 40°36' W 074°03'4 7.0
2017-Apr-24 08:00N 40°40' W 074°03'4 7.6
2017-Apr-24 07:30N 40°44' W 074°01'3 5.2
2017-Apr-24 07:00N 40°46' W 074°00'0 0.8
2017-Apr-24 06:30N 40°46' W 073°60'0 0.8
2017-Apr-24 06:00N 40°46' W 074°00'2 4.7
2017-Apr-24 05:30N 40°44' W 074°01'3 5.4
2017-Apr-24 05:00N 40°41' W 074°02'3 5.8
2017-Apr-24 04:30N 40°39' W 074°04'3 5.7
2017-Apr-24 04:00N 40°36' W 074°02'3 6.0
2017-Apr-24 03:30N 40°33' W 074°02'3 6.1
2017-Apr-24 02:57N 40°31' W 073°59'10 6.2
2017-Apr-24 01:20N 40°23' W 073°50'3 6.8
2017-Apr-24 00:52N 40°26' W 073°51'3 7.6
2017-Apr-24 00:24N 40°29' W 073°54'3 7.8
2017-Apr-24 00:00N 40°30' W 073°58'4 7.2
2017-Apr-23 23:30N 40°32' W 074°02'3 6.5
2017-Apr-23 23:00N 40°36' W 074°03'3 5.4
2017-Apr-23 22:30N 40°38' W 074°03'3 5.9
2017-Apr-23 22:00N 40°41' W 074°02'3 5.9
2017-Apr-23 21:30N 40°44' W 074°01'3 5.1
2017-Apr-23 21:00N 40°46' W 074°00'0 0.5
2017-Apr-23 20:30N 40°46' W 074°00'0 0.1
2017-Apr-23 20:00N 40°46' W 073°60'0 1.0
2017-Apr-23 19:30N 40°46' W 074°01'0 0.9
2017-Apr-23 19:00N 40°46' W 073°60'0 0.9
2017-Apr-23 18:30N 40°46' W 074°01'3 5.7
2017-Apr-23 18:00N 40°43' W 074°02'3 5.6
2017-Apr-23 17:30N 40°41' W 074°03'3 6.0
2017-Apr-23 17:00N 40°38' W 074°03'3 5.8
2017-Apr-23 16:30N 40°35' W 074°02'3 6.1
2017-Apr-23 16:00N 40°32' W 074°01'12 6.1
2017-Apr-23 14:00N 40°23' W 073°50'8 7.4
2017-Apr-23 12:53N 40°30' W 073°56'3 9.2
2017-Apr-23 12:30N 40°31' W 074°00'4 8.0
2017-Apr-23 12:00N 40°35' W 074°02'4 7.3
2017-Apr-23 11:30N 40°39' W 074°03'3 6.6
2017-Apr-23 11:00N 40°42' W 074°02'3 6.4
2017-Apr-23 10:30N 40°45' W 074°01'1 2.7
2017-Apr-23 10:00N 40°46' W 074°00'0 0.5
2017-Apr-23 09:30N 40°46' W 074°00'0 0.5
2017-Apr-23 09:00N 40°46' W 074°00'0 0.2
2017-Apr-23 08:30N 40°46' W 074°01'1 1.2
2017-Apr-23 08:00N 40°47' W 074°00'1 1.1
2017-Apr-23 07:30N 40°47' W 073°60'3 6.2
2017-Apr-23 07:00N 40°44' W 074°01'3 6.0
2017-Apr-23 06:30N 40°41' W 074°02'3 6.5
2017-Apr-23 06:00N 40°38' W 074°03'3 6.7
2017-Apr-23 05:30N 40°35' W 074°02'4 6.7
2017-Apr-23 04:58N 40°31' W 074°00'11 5.8
2017-Apr-23 03:05N 40°24' W 073°50'1 8.2
2017-Apr-23 02:56N 40°25' W 073°50'4 8.3
2017-Apr-23 02:30N 40°28' W 073°53'5 9.4
2017-Apr-23 01:59N 40°31' W 073°58'4 8.9
2017-Apr-23 01:30N 40°34' W 074°02'4 8.9
2017-Apr-23 01:00N 40°38' W 074°03'4 8.1
2017-Apr-23 00:30N 40°42' W 074°02'4 7.4
2017-Apr-23 00:00N 40°46' W 074°01'0 0.7
2017-Apr-22 23:30N 40°46' W 074°00'1 1.5
2017-Apr-22 23:00N 40°45' W 074°01'4 8.9
2017-Apr-22 22:30N 40°41' W 074°02'4 8.5
2017-Apr-22 22:00N 40°37' W 074°03'4 8.3
2017-Apr-22 21:30N 40°33' W 074°01'6 8.5
2017-Apr-22 20:49N 40°29' W 073°55'6 4.2
2017-Apr-22 19:21N 40°25' W 073°50'3 6.2
2017-Apr-22 18:56N 40°27' W 073°52'3 6.8
2017-Apr-22 18:27N 40°29' W 073°55'3 6.2
2017-Apr-22 17:58N 40°31' W 073°58'3 6.6
2017-Apr-22 17:30N 40°33' W 074°02'4 8.3
2017-Apr-22 17:00N 40°36' W 074°03'4 7.0
2017-Apr-22 16:30N 40°40' W 074°02'4 8.1
2017-Apr-22 16:00N 40°44' W 074°01'2 4.4
2017-Apr-22 15:30N 40°46' W 074°00'0 0.1
2017-Apr-22 15:00N 40°46' W 074°00'0 0.3
2017-Apr-22 14:30N 40°46' W 073°60'0 0.0
2017-Apr-22 13:30N 40°46' W 073°60'0 0.0
2017-Apr-22 13:00N 40°46' W 073°60'0 0.0
2017-Apr-22 12:30N 40°46' W 073°60'1 1.8
2017-Apr-22 12:00N 40°46' W 074°01'3 6.7
2017-Apr-22 11:30N 40°42' W 074°02'4 8.3
2017-Apr-22 11:00N 40°38' W 074°03'4 7.6
2017-Apr-22 10:30N 40°35' W 074°02'7 1.9
2017-Apr-22 07:06N 40°30' W 073°56'1 6.3
2017-Apr-22 06:59N 40°30' W 073°57'3 6.0
2017-Apr-22 06:30N 40°31' W 074°00'3 6.6
2017-Apr-22 06:00N 40°34' W 074°02'4 7.4
2017-Apr-22 05:30N 40°38' W 074°03'4 7.7
2017-Apr-22 05:00N 40°42' W 074°02'4 8.0
2017-Apr-22 04:30N 40°46' W 074°01'1 1.4
2017-Apr-22 04:00N 40°46' W 073°60'0 0.1
2017-Apr-22 03:30N 40°46' W 073°60'0 1.0
2017-Apr-22 03:00N 40°46' W 074°01'2 4.3
2017-Apr-22 02:30N 40°44' W 074°01'4 7.0
2017-Apr-22 02:00N 40°40' W 074°02'4 7.1
2017-Apr-22 01:30N 40°37' W 074°03'3 6.9
2017-Apr-22 01:00N 40°33' W 074°02'12 4.5
2017-Apr-21 22:13N 40°25' W 073°50'3 7.0
2017-Apr-21 21:49N 40°27' W 073°52'3 7.5
2017-Apr-21 21:26N 40°29' W 073°55'3 7.6
2017-Apr-21 20:59N 40°31' W 073°59'3 6.7
2017-Apr-21 20:30N 40°33' W 074°02'4 7.2
2017-Apr-21 20:00N 40°36' W 074°03'3 6.8
2017-Apr-21 19:30N 40°40' W 074°03'4 7.4
2017-Apr-21 19:00N 40°43' W 074°02'3 5.7
2017-Apr-21 18:30N 40°46' W 074°00'0 0.7
2017-Apr-21 18:00N 40°46' W 074°00'0 0.5
2017-Apr-21 17:30N 40°46' W 074°00'1 1.6
2017-Apr-21 17:00N 40°45' W 074°01'3 5.8
2017-Apr-21 16:30N 40°42' W 074°02'3 6.3
2017-Apr-21 16:00N 40°39' W 074°02'3 6.4
2017-Apr-21 15:30N 40°36' W 074°02'3 6.1
2017-Apr-21 15:00N 40°33' W 074°02'10 3.9
2017-Apr-21 12:22N 40°27' W 073°51'3 7.1
2017-Apr-21 11:54N 40°29' W 073°54'3 7.8
2017-Apr-21 11:28N 40°31' W 073°58'4 7.5
2017-Apr-21 11:00N 40°33' W 074°02'4 7.5
2017-Apr-21 10:30N 40°37' W 074°03'3 6.4
2017-Apr-21 10:00N 40°40' W 074°03'3 6.4
2017-Apr-21 09:30N 40°43' W 074°02'3 5.8
2017-Apr-21 09:00N 40°46' W 074°01'1 1.8
2017-Apr-21 08:30N 40°46' W 074°00'0 0.9
2017-Apr-21 07:58N 40°46' W 074°00'0 0.2
2017-Apr-21 07:30N 40°46' W 074°00'0 0.4
2017-Apr-21 07:00N 40°46' W 074°00'1 1.1
2017-Apr-21 06:30N 40°47' W 073°60'3 7.0
2017-Apr-21 06:00N 40°43' W 074°01'4 8.1
2017-Apr-21 05:30N 40°40' W 074°03'4 7.9
2017-Apr-21 05:00N 40°36' W 074°02'4 7.8
2017-Apr-21 04:30N 40°32' W 074°01'12 7.6
2017-Apr-21 02:54N 40°23' W 073°50'4 7.0
2017-Apr-21 02:17N 40°27' W 073°52'3 7.5
2017-Apr-21 01:56N 40°29' W 073°54'4 8.2
2017-Apr-21 01:30N 40°31' W 073°58'4 7.8
2017-Apr-21 01:00N 40°34' W 074°02'4 8.4
2017-Apr-21 00:30N 40°38' W 074°03'4 7.8
2017-Apr-21 00:00N 40°41' W 074°02'4 7.4
2017-Apr-20 23:30N 40°45' W 074°01'2 3.0
2017-Apr-20 23:00N 40°46' W 074°00'0 0.8
2017-Apr-20 22:30N 40°46' W 074°00'0 1.0
2017-Apr-20 22:00N 40°46' W 074°00'2 3.9
2017-Apr-20 21:30N 40°45' W 074°01'4 8.5
2017-Apr-20 21:00N 40°41' W 074°03'4 8.3
2017-Apr-20 20:30N 40°36' W 074°03'4 8.8
2017-Apr-20 20:00N 40°32' W 074°01'11 6.2
2017-Apr-20 18:09N 40°24' W 073°50'1 0.6
2017-Apr-20 17:02N 40°24' W 073°50'0 7.5
2017-Apr-20 16:59N 40°24' W 073°50'3 6.9
2017-Apr-20 16:29N 40°27' W 073°52'4 7.2
2017-Apr-20 15:54N 40°30' W 073°56'3 7.4
2017-Apr-20 15:29N 40°31' W 073°60'4 8.3
2017-Apr-20 15:00N 40°35' W 074°02'9 8.6
2017-Apr-20 14:00N 40°43' W 074°01'3 5.7
2017-Apr-20 13:30N 40°46' W 074°00'0 0.1
2017-Apr-20 13:00N 40°46' W 074°00'0 0.7
2017-Apr-20 12:30N 40°46' W 074°00'0 0.5
2017-Apr-20 12:00N 40°46' W 074°00'1 2.0
2017-Apr-20 11:30N 40°47' W 073°60'0 0.8
2017-Apr-20 11:00N 40°47' W 073°60'1 2.5
2017-Apr-20 10:30N 40°46' W 074°01'4 7.4
2017-Apr-20 10:00N 40°42' W 074°02'4 7.5
2017-Apr-20 09:30N 40°39' W 074°03'4 7.5
2017-Apr-20 09:00N 40°35' W 074°02'4 7.6
2017-Apr-20 08:30N 40°31' W 074°00'10 5.5
2017-Apr-20 06:36N 40°24' W 073°50'2 6.7
2017-Apr-20 06:15N 40°27' W 073°51'2 6.9
2017-Apr-20 06:00N 40°28' W 073°53'3 6.6
2017-Apr-20 05:30N 40°30' W 073°56'3 6.3
2017-Apr-20 05:00N 40°31' W 074°00'3 6.4
2017-Apr-20 04:30N 40°34' W 074°02'3 6.9
2017-Apr-20 04:00N 40°37' W 074°03'3 6.1
2017-Apr-20 03:30N 40°41' W 074°03'4 7.1
2017-Apr-20 03:00N 40°44' W 074°01'2 4.7
2017-Apr-20 02:30N 40°46' W 074°00'0 0.3
2017-Apr-20 02:00N 40°46' W 074°00'2 3.8
2017-Apr-20 01:30N 40°44' W 074°01'4 7.2
2017-Apr-20 01:00N 40°41' W 074°02'4 7.1
2017-Apr-20 00:30N 40°37' W 074°03'3 6.7
2017-Apr-20 00:00N 40°34' W 074°02'7 2.3
2017-Apr-19 20:55N 40°29' W 073°55'3 7.4
2017-Apr-19 20:29N 40°31' W 073°58'3 6.8
2017-Apr-19 20:00N 40°33' W 074°02'4 7.0
2017-Apr-19 19:30N 40°36' W 074°03'3 5.7
2017-Apr-19 19:00N 40°39' W 074°04'3 6.4
2017-Apr-19 18:30N 40°42' W 074°02'3 6.7
2017-Apr-19 18:00N 40°45' W 074°01'1 2.1
2017-Apr-19 17:30N 40°46' W 074°00'0 0.7
2017-Apr-19 17:00N 40°46' W 074°00'1 1.9
2017-Apr-19 16:30N 40°45' W 074°01'4 7.6
2017-Apr-19 16:00N 40°42' W 074°02'4 8.2
2017-Apr-19 15:30N 40°38' W 074°03'4 7.7
2017-Apr-19 14:59N 40°34' W 074°02'8 3.2
2017-Apr-19 12:20N 40°28' W 073°53'3 8.0
2017-Apr-19 11:59N 40°30' W 073°56'4 8.1
2017-Apr-19 11:30N 40°32' W 074°01'4 8.8
2017-Apr-19 11:00N 40°36' W 074°03'4 7.5
2017-Apr-19 10:30N 40°40' W 074°03'4 8.1
2017-Apr-19 10:00N 40°43' W 074°01'3 5.6
2017-Apr-19 09:30N 40°46' W 074°00'0 0.6
2017-Apr-19 09:00N 40°46' W 074°00'0 0.5
2017-Apr-19 08:30N 40°46' W 074°00'0 0.7
2017-Apr-19 08:00N 40°46' W 074°00'2 3.8
2017-Apr-19 07:30N 40°44' W 074°01'4 8.5
2017-Apr-19 07:00N 40°40' W 074°03'4 8.6
2017-Apr-19 06:30N 40°36' W 074°02'5 8.5
2017-Apr-19 05:58N 40°32' W 074°00'7 2.6
2017-Apr-19 03:23N 40°28' W 073°53'4 6.2
2017-Apr-19 02:47N 40°30' W 073°57'2 6.3
2017-Apr-19 02:30N 40°31' W 073°59'3 6.4
2017-Apr-19 02:00N 40°33' W 074°02'4 7.6
2017-Apr-19 01:30N 40°37' W 074°03'3 6.9
2017-Apr-19 01:00N 40°40' W 074°03'4 7.5
2017-Apr-19 00:30N 40°44' W 074°01'2 4.7
2017-Apr-19 00:00N 40°46' W 074°00'0 0.3
2017-Apr-18 23:30N 40°46' W 074°00'0 0.6
2017-Apr-18 23:00N 40°46' W 074°01'4 7.1
2017-Apr-18 22:30N 40°43' W 074°02'4 7.3
2017-Apr-18 22:00N 40°39' W 074°03'3 6.8
2017-Apr-18 21:30N 40°36' W 074°02'4 7.6
2017-Apr-18 21:00N 40°32' W 074°01'12 6.2
2017-Apr-18 19:05N 40°24' W 073°50'1 7.3
2017-Apr-18 18:56N 40°25' W 073°50'3 7.0
2017-Apr-18 18:27N 40°28' W 073°52'4 7.2
2017-Apr-18 17:56N 40°30' W 073°56'3 7.0
2017-Apr-18 17:30N 40°31' W 073°60'3 6.7
2017-Apr-18 17:00N 40°34' W 074°02'3 6.7
2017-Apr-18 16:30N 40°37' W 074°03'3 6.5
2017-Apr-18 16:00N 40°40' W 074°03'4 7.4
2017-Apr-18 15:30N 40°44' W 074°01'2 4.7
2017-Apr-18 15:00N 40°46' W 074°00'0 0.6
2017-Apr-18 14:30N 40°46' W 073°60'0 0.3
2017-Apr-18 13:30N 40°46' W 074°00'3 5.9
2017-Apr-18 13:00N 40°43' W 074°01'3 6.3
2017-Apr-18 12:30N 40°40' W 074°02'3 6.8
2017-Apr-18 12:00N 40°37' W 074°03'3 6.1
2017-Apr-18 11:30N 40°34' W 074°02'3 6.7
2017-Apr-18 11:00N 40°31' W 073°59'10 5.6
2017-Apr-18 09:11N 40°24' W 073°50'1 7.4
2017-Apr-18 09:00N 40°25' W 073°50'4 7.3
2017-Apr-18 08:30N 40°28' W 073°53'4 8.5
2017-Apr-18 08:00N 40°30' W 073°58'4 8.1
2017-Apr-18 07:30N 40°33' W 074°02'4 7.9
2017-Apr-18 07:00N 40°37' W 074°03'3 6.6
2017-Apr-18 06:30N 40°40' W 074°03'3 6.7
2017-Apr-18 06:00N 40°43' W 074°01'3 6.0
2017-Apr-18 05:30N 40°46' W 074°00'0 0.8
2017-Apr-18 05:00N 40°46' W 073°60'0 0.1
2017-Apr-18 04:30N 40°46' W 073°60'0 0.0
2017-Apr-18 04:00N 40°46' W 073°60'0 0.0
2017-Apr-18 03:30N 40°46' W 073°60'0 0.0
2017-Apr-18 03:00N 40°46' W 073°60'0 0.4
2017-Apr-18 02:30N 40°46' W 073°60'0 0.4
2017-Apr-18 02:00N 40°46' W 073°60'0 0.0
2017-Apr-18 01:30N 40°46' W 073°60'0 0.1
2017-Apr-18 01:00N 40°46' W 073°60'0 0.1
2017-Apr-18 00:30N 40°46' W 073°60'0 0.0
2017-Apr-18 00:00N 40°46' W 073°60'0 0.0
2017-Apr-17 23:30N 40°46' W 073°60'0 0.0
2017-Apr-17 23:00N 40°46' W 073°60'0 0.0
2017-Apr-17 22:30N 40°46' W 073°60'0 0.1
2017-Apr-17 22:00N 40°46' W 073°60'0 0.0
2017-Apr-17 21:30N 40°46' W 073°60'0 0.1
2017-Apr-17 21:00N 40°46' W 073°60'0 1.0
2017-Apr-17 20:30N 40°46' W 074°00'2 5.0
2017-Apr-17 20:00N 40°44' W 074°01'4 7.7
2017-Apr-17 19:30N 40°40' W 074°03'4 7.3
2017-Apr-17 19:00N 40°36' W 074°03'4 7.9
2017-Apr-17 18:30N 40°33' W 074°01'9 3.8
2017-Apr-17 16:09N 40°27' W 073°52'1 7.2
2017-Apr-17 16:00N 40°28' W 073°53'4 7.0
2017-Apr-17 15:29N 40°30' W 073°57'3 6.8
2017-Apr-17 15:00N 40°32' W 074°01'4 7.5
2017-Apr-17 14:30N 40°35' W 074°02'7 7.2
2017-Apr-17 13:30N 40°42' W 074°02'4 7.4
2017-Apr-17 13:00N 40°46' W 074°00'0 0.9
2017-Apr-17 12:30N 40°46' W 073°60'0 0.2
2017-Apr-17 12:00N 40°46' W 074°00'0 0.0
2017-Apr-17 11:30N 40°46' W 074°00'0 0.0
2017-Apr-17 11:00N 40°46' W 074°00'0 0.0
2017-Apr-17 10:30N 40°46' W 074°00'0 0.0
2017-Apr-17 10:00N 40°46' W 074°00'0 0.0
2017-Apr-17 09:30N 40°46' W 074°00'0 0.0
2017-Apr-17 09:00N 40°46' W 074°00'0 0.0
2017-Apr-17 08:30N 40°46' W 074°00'0 0.8
2017-Apr-17 08:00N 40°46' W 074°00'1 1.1
2017-Apr-17 07:30N 40°46' W 074°00'1 2.8
2017-Apr-17 07:00N 40°48' W 073°59'2 4.0
2017-Apr-17 06:30N 40°46' W 074°01'1 2.8
2017-Apr-17 06:00N 40°45' W 074°01'1 2.7
2017-Apr-17 05:30N 40°46' W 074°01'1 2.3
2017-Apr-17 05:00N 40°47' W 073°60'2 3.9
2017-Apr-17 04:30N 40°45' W 074°01'2 3.7
2017-Apr-17 04:00N 40°43' W 074°01'2 3.5
2017-Apr-17 03:30N 40°42' W 074°02'4 7.9
2017-Apr-17 03:00N 40°38' W 074°03'4 8.3
2017-Apr-17 02:30N 40°34' W 074°02'14 7.4
2017-Apr-17 00:38N 40°23' W 073°50'1 7.7
2017-Apr-17 00:29N 40°24' W 073°50'4 7.2
2017-Apr-16 23:56N 40°28' W 073°53'3 7.3
2017-Apr-16 23:30N 40°30' W 073°56'4 8.0
2017-Apr-16 23:00N 40°32' W 074°01'4 8.9
2017-Apr-16 22:30N 40°36' W 074°03'4 7.8
2017-Apr-16 22:00N 40°40' W 074°03'4 8.8
2017-Apr-16 21:30N 40°44' W 074°01'3 5.0
2017-Apr-16 21:00N 40°46' W 074°00'0 0.7
2017-Apr-16 20:30N 40°46' W 073°60'0 0.1
2017-Apr-16 20:00N 40°46' W 073°60'0 0.0
2017-Apr-16 19:30N 40°46' W 073°60'0 0.0
2017-Apr-16 19:00N 40°46' W 073°60'0 0.0
2017-Apr-16 18:30N 40°46' W 074°00'0 0.1
2017-Apr-16 18:00N 40°46' W 073°60'1 2.1
2017-Apr-16 17:30N 40°45' W 074°01'4 8.8
2017-Apr-16 17:00N 40°41' W 074°02'4 8.3
2017-Apr-16 16:30N 40°37' W 074°03'4 8.6
2017-Apr-16 16:00N 40°33' W 074°01'10 4.5
2017-Apr-16 13:45N 40°26' W 073°51'2 7.2
2017-Apr-16 13:30N 40°28' W 073°53'5 6.9
2017-Apr-16 12:51N 40°30' W 073°57'2 7.1
2017-Apr-16 12:30N 40°31' W 074°00'4 8.3
2017-Apr-16 12:00N 40°35' W 074°02'3 6.8
2017-Apr-16 11:30N 40°39' W 074°03'4 8.8
2017-Apr-16 11:00N 40°43' W 074°02'3 6.6
2017-Apr-16 10:30N 40°46' W 074°00'1 2.1
2017-Apr-16 10:00N 40°45' W 074°01'3 5.0
2017-Apr-16 09:30N 40°43' W 074°02'4 7.2
2017-Apr-16 09:00N 40°40' W 074°04'4 7.9
2017-Apr-16 08:30N 40°39' W 074°09'2 4.5
2017-Apr-16 08:00N 40°41' W 074°08'2 3.2
2017-Apr-16 07:30N 40°40' W 074°08'2 3.5
2017-Apr-16 07:00N 40°39' W 074°07'3 5.4
2017-Apr-16 06:30N 40°38' W 074°03'3 5.5
2017-Apr-16 06:00N 40°35' W 074°02'3 5.5
2017-Apr-16 05:30N 40°33' W 074°01'9 2.6
2017-Apr-16 02:08N 40°27' W 073°52'2 6.5
2017-Apr-16 01:54N 40°28' W 073°54'3 6.3
2017-Apr-16 01:25N 40°30' W 073°57'2 6.0
2017-Apr-16 01:00N 40°31' W 073°60'3 6.3
2017-Apr-16 00:30N 40°34' W 074°02'3 6.8
2017-Apr-16 00:00N 40°37' W 074°03'3 6.9
2017-Apr-15 23:30N 40°41' W 074°02'4 8.3
2017-Apr-15 23:00N 40°45' W 074°01'2 3.3
2017-Apr-15 22:30N 40°46' W 074°00'0 0.7
2017-Apr-15 22:00N 40°46' W 074°01'2 4.7
2017-Apr-15 21:30N 40°44' W 074°01'3 5.8
2017-Apr-15 21:00N 40°41' W 074°02'3 6.0
2017-Apr-15 20:30N 40°38' W 074°03'3 5.9
2017-Apr-15 20:00N 40°35' W 074°02'3 6.8
2017-Apr-15 19:30N 40°32' W 074°01'12 5.6
2017-Apr-15 17:28N 40°24' W 073°50'4 6.4
2017-Apr-15 16:53N 40°27' W 073°52'4 7.1
2017-Apr-15 16:21N 40°30' W 073°56'2 7.1
2017-Apr-15 16:00N 40°31' W 073°59'3 6.4
2017-Apr-15 15:30N 40°33' W 074°02'3 6.4
2017-Apr-15 15:00N 40°36' W 074°03'6 6.0
2017-Apr-15 14:00N 40°42' W 074°02'4 7.1
2017-Apr-15 13:30N 40°46' W 074°01'1 1.3
2017-Apr-15 13:00N 40°46' W 073°60'0 0.3
2017-Apr-15 12:30N 40°46' W 074°00'1 1.4
2017-Apr-15 12:00N 40°45' W 074°01'3 6.3
2017-Apr-15 11:30N 40°42' W 074°02'3 6.8
2017-Apr-15 11:00N 40°39' W 074°03'  
Track history (hours):
 
Tides and Currents Weather Stations Pressure Air Temp Water Temp Dewpoint Dewpoint Depression Visibility Wind Speed Wind Dir Waves Ship Positions

Mary Alice

Owner: Donjon Marine Co., Inc., HILLSIDE, NJ. More information available from US FCC via Universal Licensing System and Coast Guard Vessel Documentation Center.

Last reported at 2017-Apr-25 06:44 UTC. Time now 2017-Apr-25 10:25 UTC.
Position N 40°29' W 073°54'.

Length 21 m; draft 4.8 m.

Type: Towing. MMSI: 366744020.

Date/timePositionNaut miles runAvg speedWind from/ knotsBaromVisibWave heightAir tempDewpointWater temp
2017-Apr-25 06:44N 40°29' W 073°54'2 6.3
2017-Apr-25 06:29N 40°30' W 073°56'3 7.1
2017-Apr-25 06:00N 40°31' W 074°00'4 8.6
2017-Apr-25 05:30N 40°35' W 074°02'4 8.5
2017-Apr-25 05:00N 40°39' W 074°03'4 8.8
2017-Apr-25 04:30N 40°43' W 074°01'3 5.7
2017-Apr-25 04:00N 40°46' W 074°00'0 0.6
2017-Apr-25 03:30N 40°46' W 073°60'0 0.4
2017-Apr-25 03:00N 40°46' W 074°00'0 0.0
2017-Apr-25 02:30N 40°46' W 073°60'0 0.0
2017-Apr-25 02:00N 40°46' W 073°60'0 0.0
2017-Apr-25 01:30N 40°46' W 073°60'0 0.0
2017-Apr-25 01:00N 40°46' W 073°60'0 0.0
2017-Apr-25 00:30N 40°46' W 073°60'0 0.0
2017-Apr-25 00:00N 40°46' W 073°60'0 0.0
2017-Apr-24 23:30N 40°46' W 073°60'0 0.0
2017-Apr-24 23:00N 40°46' W 073°60'0 0.0
2017-Apr-24 22:30N 40°46' W 073°60'0 0.6
2017-Apr-24 22:00N 40°46' W 074°00'4 8.2
2017-Apr-24 21:30N 40°42' W 074°02'4 8.1
2017-Apr-24 21:00N 40°38' W 074°03'4 8.7
2017-Apr-24 20:30N 40°34' W 074°02'8 9.1
2017-Apr-24 19:40N 40°29' W 073°55'7 6.8
2017-Apr-24 18:40N 40°23' W 073°50'1 7.5
2017-Apr-24 18:30N 40°24' W 073°50'4 8.0
2017-Apr-24 17:59N 40°28' W 073°53'4 8.8
2017-Apr-24 17:29N 40°30' W 073°57'4 8.8
2017-Apr-24 17:00N 40°33' W 074°02'5 9.2
2017-Apr-24 16:30N 40°38' W 074°03'5 9.2
2017-Apr-24 16:00N 40°42' W 074°02'4 8.2
2017-Apr-24 15:30N 40°46' W 074°00'0 0.8
2017-Apr-24 15:00N 40°46' W 073°60'1 1.6
2017-Apr-24 14:30N 40°46' W 074°01'7 6.8
2017-Apr-24 13:30N 40°39' W 074°03'4 7.9
2017-Apr-24 13:00N 40°35' W 074°02'4 7.8
2017-Apr-24 12:30N 40°31' W 074°00'8 8.3
2017-Apr-24 11:31N 40°25' W 073°53'3 7.8
2017-Apr-24 11:05N 40°23' W 073°50'1 8.0
2017-Apr-24 10:57N 40°24' W 073°50'4 7.4
2017-Apr-24 10:28N 40°27' W 073°52'4 7.1
2017-Apr-24 09:54N 40°30' W 073°56'3 6.5
2017-Apr-24 09:30N 40°31' W 073°59'3 6.1
2017-Apr-24 09:00N 40°33' W 074°02'3 6.9
2017-Apr-24 08:30N 40°36' W 074°03'4 7.0
2017-Apr-24 08:00N 40°40' W 074°03'4 7.6
2017-Apr-24 07:30N 40°44' W 074°01'3 5.2
2017-Apr-24 07:00N 40°46' W 074°00'0 0.8
2017-Apr-24 06:30N 40°46' W 073°60'0 0.8
2017-Apr-24 06:00N 40°46' W 074°00'2 4.7
2017-Apr-24 05:30N 40°44' W 074°01'3 5.4
2017-Apr-24 05:00N 40°41' W 074°02'3 5.8
2017-Apr-24 04:30N 40°39' W 074°04'3 5.7
2017-Apr-24 04:00N 40°36' W 074°02'3 6.0
2017-Apr-24 03:30N 40°33' W 074°02'3 6.1
2017-Apr-24 02:57N 40°31' W 073°59'10 6.2
2017-Apr-24 01:20N 40°23' W 073°50'3 6.8
2017-Apr-24 00:52N 40°26' W 073°51'3 7.6
2017-Apr-24 00:24N 40°29' W 073°54'3 7.8
2017-Apr-24 00:00N 40°30' W 073°58'4 7.2
2017-Apr-23 23:30N 40°32' W 074°02'3 6.5
2017-Apr-23 23:00N 40°36' W 074°03'3 5.4
2017-Apr-23 22:30N 40°38' W 074°03'3 5.9
2017-Apr-23 22:00N 40°41' W 074°02'3 5.9
2017-Apr-23 21:30N 40°44' W 074°01'3 5.1
2017-Apr-23 21:00N 40°46' W 074°00'0 0.5
2017-Apr-23 20:30N 40°46' W 074°00'0 0.1
2017-Apr-23 20:00N 40°46' W 073°60'0 1.0
2017-Apr-23 19:30N 40°46' W 074°01'0 0.9
2017-Apr-23 19:00N 40°46' W 073°60'0 0.9
2017-Apr-23 18:30N 40°46' W 074°01'3 5.7
2017-Apr-23 18:00N 40°43' W 074°02'3 5.6
2017-Apr-23 17:30N 40°41' W 074°03'3 6.0
2017-Apr-23 17:00N 40°38' W 074°03'3 5.8
2017-Apr-23 16:30N 40°35' W 074°02'3 6.1
2017-Apr-23 16:00N 40°32' W 074°01'12 6.1
2017-Apr-23 14:00N 40°23' W 073°50'8 7.4
2017-Apr-23 12:53N 40°30' W 073°56'3 9.2
2017-Apr-23 12:30N 40°31' W 074°00'4 8.0
2017-Apr-23 12:00N 40°35' W 074°02'4 7.3
2017-Apr-23 11:30N 40°39' W 074°03'3 6.6
2017-Apr-23 11:00N 40°42' W 074°02'3 6.4
2017-Apr-23 10:30N 40°45' W 074°01'1 2.7
2017-Apr-23 10:00N 40°46' W 074°00'0 0.5
2017-Apr-23 09:30N 40°46' W 074°00'0 0.5
2017-Apr-23 09:00N 40°46' W 074°00'0 0.2
2017-Apr-23 08:30N 40°46' W 074°01'1 1.2
2017-Apr-23 08:00N 40°47' W 074°00'1 1.1
2017-Apr-23 07:30N 40°47' W 073°60'3 6.2
2017-Apr-23 07:00N 40°44' W 074°01'3 6.0
2017-Apr-23 06:30N 40°41' W 074°02'3 6.5
2017-Apr-23 06:00N 40°38' W 074°03'3 6.7
2017-Apr-23 05:30N 40°35' W 074°02'4 6.7
2017-Apr-23 04:58N 40°31' W 074°00'11 5.8
2017-Apr-23 03:05N 40°24' W 073°50'1 8.2
2017-Apr-23 02:56N 40°25' W 073°50'4 8.3
2017-Apr-23 02:30N 40°28' W 073°53'5 9.4
2017-Apr-23 01:59N 40°31' W 073°58'4 8.9
2017-Apr-23 01:30N 40°34' W 074°02'4 8.9
2017-Apr-23 01:00N 40°38' W 074°03'4 8.1
2017-Apr-23 00:30N 40°42' W 074°02'4 7.4
2017-Apr-23 00:00N 40°46' W 074°01'0 0.7
2017-Apr-22 23:30N 40°46' W 074°00'1 1.5
2017-Apr-22 23:00N 40°45' W 074°01'4 8.9
2017-Apr-22 22:30N 40°41' W 074°02'4 8.5
2017-Apr-22 22:00N 40°37' W 074°03'4 8.3
2017-Apr-22 21:30N 40°33' W 074°01'6 8.5
2017-Apr-22 20:49N 40°29' W 073°55'6 4.2
2017-Apr-22 19:21N 40°25' W 073°50'3 6.2
2017-Apr-22 18:56N 40°27' W 073°52'3 6.8
2017-Apr-22 18:27N 40°29' W 073°55'3 6.2
2017-Apr-22 17:58N 40°31' W 073°58'3 6.6
2017-Apr-22 17:30N 40°33' W 074°02'4 8.3
2017-Apr-22 17:00N 40°36' W 074°03'4 7.0
2017-Apr-22 16:30N 40°40' W 074°02'4 8.1
2017-Apr-22 16:00N 40°44' W 074°01'2 4.4
2017-Apr-22 15:30N 40°46' W 074°00'0 0.1
2017-Apr-22 15:00N 40°46' W 074°00'0 0.3
2017-Apr-22 14:30N 40°46' W 073°60'0 0.0
2017-Apr-22 13:30N 40°46' W 073°60'0 0.0
2017-Apr-22 13:00N 40°46' W 073°60'0 0.0
2017-Apr-22 12:30N 40°46' W 073°60'1 1.8
2017-Apr-22 12:00N 40°46' W 074°01'3 6.7
2017-Apr-22 11:30N 40°42' W 074°02'4 8.3
2017-Apr-22 11:00N 40°38' W 074°03'4 7.6
2017-Apr-22 10:30N 40°35' W 074°02'7 1.9
2017-Apr-22 07:06N 40°30' W 073°56'1 6.3
2017-Apr-22 06:59N 40°30' W 073°57'3 6.0
2017-Apr-22 06:30N 40°31' W 074°00'3 6.6
2017-Apr-22 06:00N 40°34' W 074°02'4 7.4
2017-Apr-22 05:30N 40°38' W 074°03'4 7.7
2017-Apr-22 05:00N 40°42' W 074°02'4 8.0
2017-Apr-22 04:30N 40°46' W 074°01'1 1.4
2017-Apr-22 04:00N 40°46' W 073°60'0 0.1
2017-Apr-22 03:30N 40°46' W 073°60'0 1.0
2017-Apr-22 03:00N 40°46' W 074°01'2 4.3
2017-Apr-22 02:30N 40°44' W 074°01'4 7.0
2017-Apr-22 02:00N 40°40' W 074°02'4 7.1
2017-Apr-22 01:30N 40°37' W 074°03'3 6.9
2017-Apr-22 01:00N 40°33' W 074°02'12 4.5
2017-Apr-21 22:13N 40°25' W 073°50'3 7.0
2017-Apr-21 21:49N 40°27' W 073°52'3 7.5
2017-Apr-21 21:26N 40°29' W 073°55'3 7.6
2017-Apr-21 20:59N 40°31' W 073°59'3 6.7
2017-Apr-21 20:30N 40°33' W 074°02'4 7.2
2017-Apr-21 20:00N 40°36' W 074°03'3 6.8
2017-Apr-21 19:30N 40°40' W 074°03'4 7.4
2017-Apr-21 19:00N 40°43' W 074°02'3 5.7
2017-Apr-21 18:30N 40°46' W 074°00'0 0.7
2017-Apr-21 18:00N 40°46' W 074°00'0 0.5
2017-Apr-21 17:30N 40°46' W 074°00'1 1.6
2017-Apr-21 17:00N 40°45' W 074°01'3 5.8
2017-Apr-21 16:30N 40°42' W 074°02'3 6.3
2017-Apr-21 16:00N 40°39' W 074°02'3 6.4
2017-Apr-21 15:30N 40°36' W 074°02'3 6.1
2017-Apr-21 15:00N 40°33' W 074°02'10 3.9
2017-Apr-21 12:22N 40°27' W 073°51'3 7.1
2017-Apr-21 11:54N 40°29' W 073°54'3 7.8
2017-Apr-21 11:28N 40°31' W 073°58'4 7.5
2017-Apr-21 11:00N 40°33' W 074°02'4 7.5
2017-Apr-21 10:30N 40°37' W 074°03'3 6.4
2017-Apr-21 10:00N 40°40' W 074°03'3 6.4
2017-Apr-21 09:30N 40°43' W 074°02'3 5.8
2017-Apr-21 09:00N 40°46' W 074°01'1 1.8
2017-Apr-21 08:30N 40°46' W 074°00'0 0.9
2017-Apr-21 07:58N 40°46' W 074°00'0 0.2
2017-Apr-21 07:30N 40°46' W 074°00'0 0.4
2017-Apr-21 07:00N 40°46' W 074°00'1 1.1
2017-Apr-21 06:30N 40°47' W 073°60'3 7.0
2017-Apr-21 06:00N 40°43' W 074°01'4 8.1
2017-Apr-21 05:30N 40°40' W 074°03'4 7.9
2017-Apr-21 05:00N 40°36' W 074°02'4 7.8
2017-Apr-21 04:30N 40°32' W 074°01'12 7.6
2017-Apr-21 02:54N 40°23' W 073°50'4 7.0
2017-Apr-21 02:17N 40°27' W 073°52'3 7.5
2017-Apr-21 01:56N 40°29' W 073°54'4 8.2
2017-Apr-21 01:30N 40°31' W 073°58'4 7.8
2017-Apr-21 01:00N 40°34' W 074°02'4 8.4
2017-Apr-21 00:30N 40°38' W 074°03'4 7.8
2017-Apr-21 00:00N 40°41' W 074°02'4 7.4
2017-Apr-20 23:30N 40°45' W 074°01'2 3.0
2017-Apr-20 23:00N 40°46' W 074°00'0 0.8
2017-Apr-20 22:30N 40°46' W 074°00'0 1.0
2017-Apr-20 22:00N 40°46' W 074°00'2 3.9
2017-Apr-20 21:30N 40°45' W 074°01'4 8.5
2017-Apr-20 21:00N 40°41' W 074°03'4 8.3
2017-Apr-20 20:30N 40°36' W 074°03'4 8.8
2017-Apr-20 20:00N 40°32' W 074°01'11 6.2
2017-Apr-20 18:09N 40°24' W 073°50'1 0.6
2017-Apr-20 17:02N 40°24' W 073°50'0 7.5
2017-Apr-20 16:59N 40°24' W 073°50'3 6.9
2017-Apr-20 16:29N 40°27' W 073°52'4 7.2
2017-Apr-20 15:54N 40°30' W 073°56'3 7.4
2017-Apr-20 15:29N 40°31' W 073°60'4 8.3
2017-Apr-20 15:00N 40°35' W 074°02'9 8.6
2017-Apr-20 14:00N 40°43' W 074°01'3 5.7
2017-Apr-20 13:30N 40°46' W 074°00'0 0.1
2017-Apr-20 13:00N 40°46' W 074°00'0 0.7
2017-Apr-20 12:30N 40°46' W 074°00'0 0.5
2017-Apr-20 12:00N 40°46' W 074°00'1 2.0
2017-Apr-20 11:30N 40°47' W 073°60'0 0.8
2017-Apr-20 11:00N 40°47' W 073°60'1 2.5
2017-Apr-20 10:30N 40°46' W 074°01'4 7.4
2017-Apr-20 10:00N 40°42' W 074°02'4 7.5
2017-Apr-20 09:30N 40°39' W 074°03'4 7.5
2017-Apr-20 09:00N 40°35' W 074°02'4 7.6
2017-Apr-20 08:30N 40°31' W 074°00'10 5.5
2017-Apr-20 06:36N 40°24' W 073°50'2 6.7
2017-Apr-20 06:15N 40°27' W 073°51'2 6.9
2017-Apr-20 06:00N 40°28' W 073°53'3 6.6
2017-Apr-20 05:30N 40°30' W 073°56'3 6.3
2017-Apr-20 05:00N 40°31' W 074°00'3 6.4
2017-Apr-20 04:30N 40°34' W 074°02'3 6.9
2017-Apr-20 04:00N 40°37' W 074°03'3 6.1
2017-Apr-20 03:30N 40°41' W 074°03'4 7.1
2017-Apr-20 03:00N 40°44' W 074°01'2 4.7
2017-Apr-20 02:30N 40°46' W 074°00'0 0.3
2017-Apr-20 02:00N 40°46' W 074°00'2 3.8
2017-Apr-20 01:30N 40°44' W 074°01'4 7.2
2017-Apr-20 01:00N 40°41' W 074°02'4 7.1
2017-Apr-20 00:30N 40°37' W 074°03'3 6.7
2017-Apr-20 00:00N 40°34' W 074°02'7 2.3
2017-Apr-19 20:55N 40°29' W 073°55'3 7.4
2017-Apr-19 20:29N 40°31' W 073°58'3 6.8
2017-Apr-19 20:00N 40°33' W 074°02'4 7.0
2017-Apr-19 19:30N 40°36' W 074°03'3 5.7
2017-Apr-19 19:00N 40°39' W 074°04'3 6.4
2017-Apr-19 18:30N 40°42' W 074°02'3 6.7
2017-Apr-19 18:00N 40°45' W 074°01'1 2.1
2017-Apr-19 17:30N 40°46' W 074°00'0 0.7
2017-Apr-19 17:00N 40°46' W 074°00'1 1.9
2017-Apr-19 16:30N 40°45' W 074°01'4 7.6
2017-Apr-19 16:00N 40°42' W 074°02'4 8.2
2017-Apr-19 15:30N 40°38' W 074°03'4 7.7
2017-Apr-19 14:59N 40°34' W 074°02'8 3.2
2017-Apr-19 12:20N 40°28' W 073°53'3 8.0
2017-Apr-19 11:59N 40°30' W 073°56'4 8.1
2017-Apr-19 11:30N 40°32' W 074°01'4 8.8
2017-Apr-19 11:00N 40°36' W 074°03'4 7.5
2017-Apr-19 10:30N 40°40' W 074°03'4 8.1
2017-Apr-19 10:00N 40°43' W 074°01'3 5.6
2017-Apr-19 09:30N 40°46' W 074°00'0 0.6
2017-Apr-19 09:00N 40°46' W 074°00'0 0.5
2017-Apr-19 08:30N 40°46' W 074°00'0 0.7
2017-Apr-19 08:00N 40°46' W 074°00'2 3.8
2017-Apr-19 07:30N 40°44' W 074°01'4 8.5
2017-Apr-19 07:00N 40°40' W 074°03'4 8.6
2017-Apr-19 06:30N 40°36' W 074°02'5 8.5
2017-Apr-19 05:58N 40°32' W 074°00'7 2.6
2017-Apr-19 03:23N 40°28' W 073°53'4 6.2
2017-Apr-19 02:47N 40°30' W 073°57'2 6.3
2017-Apr-19 02:30N 40°31' W 073°59'3 6.4
2017-Apr-19 02:00N 40°33' W 074°02'4 7.6
2017-Apr-19 01:30N 40°37' W 074°03'3 6.9
2017-Apr-19 01:00N 40°40' W 074°03'4 7.5
2017-Apr-19 00:30N 40°44' W 074°01'2 4.7
2017-Apr-19 00:00N 40°46' W 074°00'0 0.3
2017-Apr-18 23:30N 40°46' W 074°00'0 0.6
2017-Apr-18 23:00N 40°46' W 074°01'4 7.1
2017-Apr-18 22:30N 40°43' W 074°02'4 7.3
2017-Apr-18 22:00N 40°39' W 074°03'3 6.8
2017-Apr-18 21:30N 40°36' W 074°02'4 7.6
2017-Apr-18 21:00N 40°32' W 074°01'12 6.2
2017-Apr-18 19:05N 40°24' W 073°50'1 7.3
2017-Apr-18 18:56N 40°25' W 073°50'3 7.0
2017-Apr-18 18:27N 40°28' W 073°52'4 7.2
2017-Apr-18 17:56N 40°30' W 073°56'3 7.0
2017-Apr-18 17:30N 40°31' W 073°60'3 6.7
2017-Apr-18 17:00N 40°34' W 074°02'3 6.7
2017-Apr-18 16:30N 40°37' W 074°03'3 6.5
2017-Apr-18 16:00N 40°40' W 074°03'4 7.4
2017-Apr-18 15:30N 40°44' W 074°01'2 4.7
2017-Apr-18 15:00N 40°46' W 074°00'0 0.6
2017-Apr-18 14:30N 40°46' W 073°60'0 0.3
2017-Apr-18 13:30N 40°46' W 074°00'3 5.9
2017-Apr-18 13:00N 40°43' W 074°01'3 6.3
2017-Apr-18 12:30N 40°40' W 074°02'3 6.8
2017-Apr-18 12:00N 40°37' W 074°03'3 6.1
2017-Apr-18 11:30N 40°34' W 074°02'3 6.7
2017-Apr-18 11:00N 40°31' W 073°59'10 5.6
2017-Apr-18 09:11N 40°24' W 073°50'1 7.4
2017-Apr-18 09:00N 40°25' W 073°50'4 7.3
2017-Apr-18 08:30N 40°28' W 073°53'4 8.5
2017-Apr-18 08:00N 40°30' W 073°58'4 8.1
2017-Apr-18 07:30N 40°33' W 074°02'4 7.9
2017-Apr-18 07:00N 40°37' W 074°03'3 6.6
2017-Apr-18 06:30N 40°40' W 074°03'3 6.7
2017-Apr-18 06:00N 40°43' W 074°01'3 6.0
2017-Apr-18 05:30N 40°46' W 074°00'0 0.8
2017-Apr-18 05:00N 40°46' W 073°60'0 0.1
2017-Apr-18 04:30N 40°46' W 073°60'0 0.0
2017-Apr-18 04:00N 40°46' W 073°60'0 0.0
2017-Apr-18 03:30N 40°46' W 073°60'0 0.0
2017-Apr-18 03:00N 40°46' W 073°60'0 0.4
2017-Apr-18 02:30N 40°46' W 073°60'0 0.4
2017-Apr-18 02:00N 40°46' W 073°60'0 0.0
2017-Apr-18 01:30N 40°46' W 073°60'0 0.1
2017-Apr-18 01:00N 40°46' W 073°60'0 0.1
2017-Apr-18 00:30N 40°46' W 073°60'0 0.0
2017-Apr-18 00:00N 40°46' W 073°60'0 0.0
2017-Apr-17 23:30N 40°46' W 073°60'0 0.0
2017-Apr-17 23:00N 40°46' W 073°60'0 0.0
2017-Apr-17 22:30N 40°46' W 073°60'0 0.1
2017-Apr-17 22:00N 40°46' W 073°60'0 0.0
2017-Apr-17 21:30N 40°46' W 073°60'0 0.1
2017-Apr-17 21:00N 40°46' W 073°60'0 1.0
2017-Apr-17 20:30N 40°46' W 074°00'2 5.0
2017-Apr-17 20:00N 40°44' W 074°01'4 7.7
2017-Apr-17 19:30N 40°40' W 074°03'4 7.3
2017-Apr-17 19:00N 40°36' W 074°03'4 7.9
2017-Apr-17 18:30N 40°33' W 074°01'9 3.8
2017-Apr-17 16:09N 40°27' W 073°52'1 7.2
2017-Apr-17 16:00N 40°28' W 073°53'4 7.0
2017-Apr-17 15:29N 40°30' W 073°57'3 6.8
2017-Apr-17 15:00N 40°32' W 074°01'4 7.5
2017-Apr-17 14:30N 40°35' W 074°02'7 7.2
2017-Apr-17 13:30N 40°42' W 074°02'4 7.4
2017-Apr-17 13:00N 40°46' W 074°00'0 0.9
2017-Apr-17 12:30N 40°46' W 073°60'0 0.2
2017-Apr-17 12:00N 40°46' W 074°00'0 0.0
2017-Apr-17 11:30N 40°46' W 074°00'0 0.0
2017-Apr-17 11:00N 40°46' W 074°00'0 0.0
2017-Apr-17 10:30N 40°46' W 074°00'0 0.0
2017-Apr-17 10:00N 40°46' W 074°00'0 0.0
2017-Apr-17 09:30N 40°46' W 074°00'0 0.0
2017-Apr-17 09:00N 40°46' W 074°00'0 0.0
2017-Apr-17 08:30N 40°46' W 074°00'0 0.8
2017-Apr-17 08:00N 40°46' W 074°00'1 1.1
2017-Apr-17 07:30N 40°46' W 074°00'1 2.8
2017-Apr-17 07:00N 40°48' W 073°59'2 4.0
2017-Apr-17 06:30N 40°46' W 074°01'1 2.8
2017-Apr-17 06:00N 40°45' W 074°01'1 2.7
2017-Apr-17 05:30N 40°46' W 074°01'1 2.3
2017-Apr-17 05:00N 40°47' W 073°60'2 3.9
2017-Apr-17 04:30N 40°45' W 074°01'2 3.7
2017-Apr-17 04:00N 40°43' W 074°01'2 3.5
2017-Apr-17 03:30N 40°42' W 074°02'4 7.9
2017-Apr-17 03:00N 40°38' W 074°03'4 8.3
2017-Apr-17 02:30N 40°34' W 074°02'14 7.4
2017-Apr-17 00:38N 40°23' W 073°50'1 7.7
2017-Apr-17 00:29N 40°24' W 073°50'4 7.2
2017-Apr-16 23:56N 40°28' W 073°53'3 7.3
2017-Apr-16 23:30N 40°30' W 073°56'4 8.0
2017-Apr-16 23:00N 40°32' W 074°01'4 8.9
2017-Apr-16 22:30N 40°36' W 074°03'4 7.8
2017-Apr-16 22:00N 40°40' W 074°03'4 8.8
2017-Apr-16 21:30N 40°44' W 074°01'3 5.0
2017-Apr-16 21:00N 40°46' W 074°00'0 0.7
2017-Apr-16 20:30N 40°46' W 073°60'0 0.1
2017-Apr-16 20:00N 40°46' W 073°60'0 0.0
2017-Apr-16 19:30N 40°46' W 073°60'0 0.0
2017-Apr-16 19:00N 40°46' W 073°60'0 0.0
2017-Apr-16 18:30N 40°46' W 074°00'0 0.1
2017-Apr-16 18:00N 40°46' W 073°60'1 2.1
2017-Apr-16 17:30N 40°45' W 074°01'4 8.8
2017-Apr-16 17:00N 40°41' W 074°02'4 8.3
2017-Apr-16 16:30N 40°37' W 074°03'4 8.6
2017-Apr-16 16:00N 40°33' W 074°01'10 4.5
2017-Apr-16 13:45N 40°26' W 073°51'2 7.2
2017-Apr-16 13:30N 40°28' W 073°53'5 6.9
2017-Apr-16 12:51N 40°30' W 073°57'2 7.1
2017-Apr-16 12:30N 40°31' W 074°00'4 8.3
2017-Apr-16 12:00N 40°35' W 074°02'3 6.8
2017-Apr-16 11:30N 40°39' W 074°03'4 8.8
2017-Apr-16 11:00N 40°43' W 074°02'3 6.6
2017-Apr-16 10:30N 40°46' W 074°00'1 2.1
2017-Apr-16 10:00N 40°45' W 074°01'3 5.0
2017-Apr-16 09:30N 40°43' W 074°02'4 7.2
2017-Apr-16 09:00N 40°40' W 074°04'4 7.9
2017-Apr-16 08:30N 40°39' W 074°09'2 4.5
2017-Apr-16 08:00N 40°41' W 074°08'2 3.2
2017-Apr-16 07:30N 40°40' W 074°08'2 3.5
2017-Apr-16 07:00N 40°39' W 074°07'3 5.4
2017-Apr-16 06:30N 40°38' W 074°03'3 5.5
2017-Apr-16 06:00N 40°35' W 074°02'3 5.5
2017-Apr-16 05:30N 40°33' W 074°01'9 2.6
2017-Apr-16 02:08N 40°27' W 073°52'2 6.5
2017-Apr-16 01:54N 40°28' W 073°54'3 6.3
2017-Apr-16 01:25N 40°30' W 073°57'2 6.0
2017-Apr-16 01:00N 40°31' W 073°60'3 6.3
2017-Apr-16 00:30N 40°34' W 074°02'3 6.8
2017-Apr-16 00:00N 40°37' W 074°03'3 6.9
2017-Apr-15 23:30N 40°41' W 074°02'4 8.3
2017-Apr-15 23:00N 40°45' W 074°01'2 3.3
2017-Apr-15 22:30N 40°46' W 074°00'0 0.7
2017-Apr-15 22:00N 40°46' W 074°01'2 4.7
2017-Apr-15 21:30N 40°44' W 074°01'3 5.8
2017-Apr-15 21:00N 40°41' W 074°02'3 6.0
2017-Apr-15 20:30N 40°38' W 074°03'3 5.9
2017-Apr-15 20:00N 40°35' W 074°02'3 6.8
2017-Apr-15 19:30N 40°32' W 074°01'12 5.6
2017-Apr-15 17:28N 40°24' W 073°50'4 6.4
2017-Apr-15 16:53N 40°27' W 073°52'4 7.1
2017-Apr-15 16:21N 40°30' W 073°56'2 7.1
2017-Apr-15 16:00N 40°31' W 073°59'3 6.4
2017-Apr-15 15:30N 40°33' W 074°02'3 6.4
2017-Apr-15 15:00N 40°36' W 074°03'6 6.0
2017-Apr-15 14:00N 40°42' W 074°02'4 7.1
2017-Apr-15 13:30N 40°46' W 074°01'1 1.3
2017-Apr-15 13:00N 40°46' W 073°60'0 0.3
2017-Apr-15 12:30N 40°46' W 074°00'1 1.4
2017-Apr-15 12:00N 40°45' W 074°01'3 6.3
2017-Apr-15 11:30N 40°42' W 074°02'3 6.8
2017-Apr-15 11:00N 40°39' W 074°03'  

Dump ship's entire track history